Terminal Aerodrome Forecast
Issued by NWS Jacksonville, FL

Home | Current Version | Previous Version | Text Only | Print | Product List | Glossary On
Versions: 1 2 3 4 5 6 7 8 9 10 11 12 13 14 15 16 17
514
FTUS42 KJAX 091120
TAFGNV
TAF
KGNV 091120Z 0912/1012 29008KT P6SM SKC
     FM091400 27019G29KT P6SM SCT250
     FM092300 27011G18KT P6SM SKC=

USA.gov is the U.S. government's official web portal to all federal, state and local government web resources and services.